Time;durP1;ratioP1;P1;durP2;ratioP2;P2;SDS_P1;SDS_P2;PMS_P1;PMS_P2;Temp;Humidity;BMP_temperature;BMP_pressure;BME280_temperature;BME280_humidity;BME280_pressure;Samples;Min_cycle;Max_cycle;Signal;HPM_P1;HPM_P2
2023/01/08 00:01:58;;;;;;;5.75;4.03;;;10.60;99.90;;;;;;5033335;28;20184;-78
2023/01/08 00:04:24;;;;;;;7.45;4.22;;;10.60;99.90;;;;;;5030049;28;20689;-78
2023/01/08 00:06:50;;;;;;;5.63;4.03;;;10.60;99.90;;;;;;5067926;28;20188;-82
2023/01/08 00:09:15;;;;;;;7.20;4.20;;;10.60;99.90;;;;;;5020586;28;20679;-79
2023/01/08 00:11:43;;;;;;;9.32;4.22;;;10.60;99.90;;;;;;5033232;28;20247;-79
2023/01/08 00:14:09;;;;;;;6.05;4.15;;;10.60;99.90;;;;;;5019683;28;20193;-79
2023/01/08 00:16:35;;;;;;;6.93;3.70;;;10.60;99.90;;;;;;5033495;28;20167;-79
2023/01/08 00:19:01;;;;;;;6.72;4.15;;;10.60;99.90;;;;;;5031329;28;21577;-78
2023/01/08 00:21:27;;;;;;;4.80;3.83;;;10.60;99.90;;;;;;5031418;28;20611;-78
2023/01/08 00:23:53;;;;;;;6.75;4.40;;;10.60;99.90;;;;;;5031191;28;20200;-77
2023/01/08 00:26:19;;;;;;;4.80;3.38;;;10.70;99.90;;;;;;5033187;28;20263;-78
2023/01/08 00:28:45;;;;;;;6.43;3.90;;;10.70;99.90;;;;;;5031220;28;20283;-77
2023/01/08 00:31:12;;;;;;;6.65;3.95;;;10.60;99.90;;;;;;5032260;28;20659;-79
2023/01/08 00:33:39;;;;;;;8.82;3.78;;;10.70;99.90;;;;;;5031571;28;20179;-77
2023/01/08 00:36:14;;;;;;;8.30;4.10;;;10.70;99.90;;;;;;5048715;28;20176;-79
2023/01/08 00:38:41;;;;;;;6.07;3.70;;;10.70;99.90;;;;;;5032303;28;20663;-84
2023/01/08 00:41:06;;;;;;;4.68;3.42;;;10.70;99.90;;;;;;5031389;28;20216;-78
2023/01/08 00:43:32;;;;;;;5.43;4.07;;;10.70;99.90;;;;;;5032023;28;20632;-80
2023/01/08 00:45:58;;;;;;;10.48;3.85;;;10.70;99.90;;;;;;5031674;28;20195;-78
2023/01/08 00:48:24;;;;;;;5.88;3.85;;;10.70;99.90;;;;;;5047074;28;20646;-78
2023/01/08 00:50:51;;;;;;;7.18;3.60;;;10.70;99.90;;;;;;5030825;28;20176;-78
2023/01/08 00:53:18;;;;;;;6.65;4.13;;;10.70;99.90;;;;;;5045814;28;20237;-80
2023/01/08 00:55:44;;;;;;;6.28;4.05;;;10.70;99.90;;;;;;5049071;28;20211;-78
2023/01/08 00:58:11;;;;;;;5.18;3.65;;;10.70;99.90;;;;;;5026107;28;20184;-77
2023/01/08 01:00:37;;;;;;;4.97;3.63;;;10.70;99.90;;;;;;5032078;28;20179;-78
2023/01/08 01:03:03;;;;;;;4.90;3.83;;;10.70;99.90;;;;;;5032372;28;20184;-82
2023/01/08 01:05:29;;;;;;;5.72;3.45;;;10.60;99.90;;;;;;5064503;28;20223;-78
2023/01/08 01:07:55;;;;;;;7.00;3.95;;;10.60;99.90;;;;;;5035376;28;20192;-79
2023/01/08 01:10:22;;;;;;;6.43;3.42;;;10.60;99.90;;;;;;5050241;28;20270;-79
2023/01/08 01:12:49;;;;;;;6.68;3.95;;;10.60;99.90;;;;;;5033081;28;20223;-78
2023/01/08 01:15:16;;;;;;;5.32;3.55;;;10.60;99.90;;;;;;5034354;28;20202;-79
2023/01/08 01:17:44;;;;;;;5.15;3.65;;;10.60;99.90;;;;;;5065355;28;20187;-79
2023/01/08 01:20:13;;;;;;;5.43;3.58;;;10.60;99.90;;;;;;5032464;28;20172;-79
2023/01/08 01:22:39;;;;;;;5.72;3.80;;;10.60;99.90;;;;;;5030403;28;20287;-79
2023/01/08 01:25:05;;;;;;;9.57;3.60;;;10.60;99.90;;;;;;5035611;28;20617;-79
2023/01/08 01:27:31;;;;;;;6.65;3.05;;;10.50;99.90;;;;;;5046032;28;20238;-79
2023/01/08 01:29:57;;;;;;;6.30;3.22;;;10.50;99.90;;;;;;5031306;28;20555;-78
2023/01/08 01:32:23;;;;;;;4.28;3.00;;;10.50;99.90;;;;;;5042936;28;20187;-78
2023/01/08 01:34:48;;;;;;;8.70;3.65;;;10.50;99.90;;;;;;5033827;28;20218;-79
2023/01/08 01:37:15;;;;;;;5.63;3.38;;;10.50;99.90;;;;;;5056750;28;20586;-78
2023/01/08 01:39:45;;;;;;;6.25;3.22;;;10.50;99.90;;;;;;5031206;28;20194;-79
2023/01/08 01:45:00;;;;;;;3.63;3.10;;;10.50;99.90;;;;;;5035696;28;20200;-78
2023/01/08 01:47:36;;;;;;;7.22;3.22;;;10.50;99.90;;;;;;5036204;28;20184;-83
2023/01/08 01:50:20;;;;;;;5.25;3.28;;;10.50;99.90;;;;;;5047146;28;20658;-79
2023/01/08 01:53:11;;;;;;;5.63;3.70;;;10.60;99.90;;;;;;5035802;28;20184;-79
2023/01/08 01:55:41;;;;;;;5.55;3.80;;;10.50;99.90;;;;;;5035607;28;20635;-79
2023/01/08 01:58:16;;;;;;;5.32;3.47;;;10.60;99.90;;;;;;5033120;28;20187;-79
2023/01/08 02:00:42;;;;;;;6.18;3.17;;;10.50;99.90;;;;;;5067800;28;20163;-79
2023/01/08 02:03:10;;;;;;;6.30;3.60;;;10.50;99.90;;;;;;5031908;28;20187;-82
2023/01/08 02:05:49;;;;;;;4.38;3.22;;;10.50;99.90;;;;;;5041138;28;20287;-78
2023/01/08 02:08:45;;;;;;;6.68;3.38;;;10.50;99.90;;;;;;5035108;28;20279;-78
2023/01/08 02:12:15;;;;;;;6.68;3.33;;;10.50;99.90;;;;;;5027793;28;20684;-78
2023/01/08 02:14:41;;;;;;;4.90;3.03;;;10.50;99.90;;;;;;5034137;28;20234;-77
2023/01/08 02:17:13;;;;;;;5.75;2.90;;;10.40;99.90;;;;;;5035713;28;20179;-77
2023/01/08 02:20:01;;;;;;;5.90;3.15;;;10.40;99.90;;;;;;5046986;28;20188;-77
2023/01/08 02:22:45;;;;;;;7.63;3.05;;;10.40;99.90;;;;;;5022204;28;20271;-83
2023/01/08 02:25:48;;;;;;;7.22;2.97;;;10.30;99.90;;;;;;5035063;28;20212;-78
2023/01/08 02:28:15;;;;;;;6.22;3.15;;;10.40;99.90;;;;;;5034068;28;20179;-77
2023/01/08 02:30:41;;;;;;;7.43;2.40;;;10.30;99.90;;;;;;5035467;28;20180;-78
2023/01/08 02:33:07;;;;;;;7.82;2.53;;;10.30;99.90;;;;;;5034480;28;20183;-78
2023/01/08 02:35:39;;;;;;;8.55;2.42;;;10.30;99.90;;;;;;5034065;28;20187;-78
2023/01/08 02:38:05;;;;;;;8.45;2.13;;;10.20;99.90;;;;;;5063004;28;20714;-78
2023/01/08 02:40:48;;;;;;;9.10;2.20;;;10.20;99.90;;;;;;5031134;28;20180;-79
2023/01/08 02:43:30;;;;;;;7.32;2.22;;;10.20;99.90;;;;;;5023416;28;20190;-78
2023/01/08 02:45:59;;;;;;;11.52;2.20;;;10.20;99.90;;;;;;5024390;28;20204;-78
2023/01/08 02:48:35;;;;;;;7.30;1.98;;;10.20;99.90;;;;;;5023006;28;20187;-80
2023/01/08 02:51:05;;;;;;;9.00;2.05;;;10.20;99.90;;;;;;5035120;28;20172;-79
2023/01/08 02:53:35;;;;;;;7.38;2.15;;;10.20;99.90;;;;;;5033951;28;20180;-77
2023/01/08 02:56:05;;;;;;;11.07;2.35;;;10.10;99.90;;;;;;5033270;28;20176;-79
2023/01/08 02:58:34;;;;;;;14.32;2.58;;;10.10;99.90;;;;;;5032713;28;20180;-78
2023/01/08 03:01:07;;;;;;;16.58;2.40;;;10.10;99.90;;;;;;5032872;28;20238;-78
2023/01/08 03:03:35;;;;;;;8.18;2.00;;;10.10;99.90;;;;;;5031991;28;20175;-78
2023/01/08 03:06:07;;;;;;;13.65;2.60;;;10.10;99.90;;;;;;5041786;28;20198;-78
2023/01/08 03:08:34;;;;;;;19.25;2.40;;;10.10;99.90;;;;;;5040569;28;20180;-78
2023/01/08 03:11:07;;;;;;;12.77;2.40;;;10.00;99.90;;;;;;5034331;28;20180;-78
2023/01/08 03:14:00;;;;;;;10.25;2.35;;;10.00;99.90;;;;;;5031367;28;20187;-78
2023/01/08 03:16:32;;;;;;;18.65;2.95;;;10.00;99.90;;;;;;5034540;28;20188;-78
2023/01/08 03:19:06;;;;;;;12.15;2.50;;;10.00;99.90;;;;;;5033722;28;20176;-77
2023/01/08 03:21:34;;;;;;;16.52;3.08;;;10.00;99.90;;;;;;5034220;28;20172;-77
2023/01/08 03:24:01;;;;;;;12.85;2.38;;;9.90;99.90;;;;;;5015350;28;20222;-78
2023/01/08 03:26:28;;;;;;;18.95;2.85;;;9.90;99.90;;;;;;5041922;28;20184;-78
2023/01/08 03:28:56;;;;;;;12.15;1.88;;;9.90;99.90;;;;;;5064199;28;20230;-78
2023/01/08 03:31:26;;;;;;;8.90;2.13;;;9.90;99.90;;;;;;5042541;28;20184;-78
2023/01/08 03:33:54;;;;;;;11.25;2.20;;;9.90;99.90;;;;;;5035330;28;20180;-78
2023/01/08 03:36:24;;;;;;;15.00;2.70;;;9.80;99.90;;;;;;5048964;28;20172;-78
2023/01/08 03:38:59;;;;;;;15.27;2.80;;;9.80;99.90;;;;;;5033317;28;20191;-78
2023/01/08 03:41:28;;;;;;;14.10;2.13;;;9.80;99.90;;;;;;5032189;28;20207;-78
2023/01/08 03:43:55;;;;;;;9.52;2.55;;;9.70;99.90;;;;;;5027890;28;20203;-78
2023/01/08 03:46:31;;;;;;;12.52;2.35;;;9.70;99.90;;;;;;5032636;28;20283;-79
2023/01/08 03:48:58;;;;;;;11.48;2.30;;;9.70;99.90;;;;;;5026421;28;20628;-78
2023/01/08 03:51:24;;;;;;;14.50;2.63;;;9.70;99.90;;;;;;5033145;28;20184;-77
2023/01/08 03:53:53;;;;;;;10.95;2.70;;;9.70;99.90;;;;;;5054155;28;20212;-77
2023/01/08 03:56:19;;;;;;;10.60;1.98;;;9.70;99.90;;;;;;5031777;28;20211;-76
2023/01/08 03:58:44;;;;;;;10.68;2.40;;;9.80;99.90;;;;;;5029916;28;20211;-77
2023/01/08 04:01:10;;;;;;;11.77;2.63;;;9.70;99.90;;;;;;5033510;28;20183;-77
2023/01/08 04:03:36;;;;;;;10.95;2.47;;;9.70;99.90;;;;;;5046812;28;20592;-77
2023/01/08 04:06:02;;;;;;;14.77;2.42;;;9.70;99.90;;;;;;5032240;28;20256;-77
2023/01/08 04:08:27;;;;;;;8.18;2.40;;;9.70;99.90;;;;;;5034316;28;20195;-79
2023/01/08 04:10:53;;;;;;;13.35;2.88;;;9.70;99.90;;;;;;5033557;28;20586;-79
2023/01/08 04:13:19;;;;;;;9.95;2.10;;;9.70;99.90;;;;;;5048849;28;20310;-78
2023/01/08 04:15:49;;;;;;;13.23;2.50;;;9.70;99.90;;;;;;5032277;28;20175;-79
2023/01/08 04:18:15;;;;;;;11.80;2.45;;;9.70;99.90;;;;;;5027371;28;20187;-76
2023/01/08 04:20:45;;;;;;;12.07;2.47;;;9.60;99.90;;;;;;5014717;28;20180;-77
2023/01/08 04:23:11;;;;;;;13.20;2.50;;;9.60;99.90;;;;;;5032161;28;20194;-77
2023/01/08 04:25:37;;;;;;;12.50;2.60;;;9.60;99.90;;;;;;5048851;28;20200;-77
2023/01/08 04:28:06;;;;;;;9.50;2.60;;;9.50;99.90;;;;;;5027839;28;20540;-77
2023/01/08 04:30:32;;;;;;;8.38;2.42;;;9.50;99.90;;;;;;5014834;28;20195;-77
2023/01/08 04:32:57;;;;;;;11.70;2.85;;;9.50;99.90;;;;;;5032056;28;20548;-79
2023/01/08 04:35:23;;;;;;;11.30;2.60;;;9.50;99.90;;;;;;5032487;28;20175;-77
2023/01/08 04:37:49;;;;;;;7.22;2.50;;;9.50;99.90;;;;;;5030802;28;20307;-78
2023/01/08 04:40:14;;;;;;;6.88;2.47;;;9.40;99.90;;;;;;5048649;28;20190;-78
2023/01/08 04:42:40;;;;;;;9.52;3.05;;;9.40;99.90;;;;;;5031827;28;20180;-78
2023/01/08 04:45:06;;;;;;;10.43;3.13;;;9.40;99.90;;;;;;5031713;28;20609;-78
2023/01/08 04:47:32;;;;;;;8.75;2.75;;;9.40;99.90;;;;;;5031243;28;20195;-81
2023/01/08 04:49:58;;;;;;;8.73;3.40;;;9.40;99.90;;;;;;5048002;28;20241;-77
2023/01/08 04:52:24;;;;;;;8.15;2.75;;;9.40;99.90;;;;;;5028670;28;20659;-79
2023/01/08 04:54:49;;;;;;;11.45;3.13;;;9.40;99.90;;;;;;5046644;28;20196;-77
2023/01/08 04:57:15;;;;;;;11.55;3.22;;;9.40;99.90;;;;;;5030507;28;20221;-78
2023/01/08 04:59:41;;;;;;;6.43;3.22;;;9.40;99.90;;;;;;5042782;28;20183;-76
2023/01/08 05:02:06;;;;;;;7.68;3.10;;;9.40;99.90;;;;;;5032539;28;20192;-77
2023/01/08 05:04:32;;;;;;;10.30;3.47;;;9.40;99.90;;;;;;5032668;28;20219;-78
2023/01/08 05:06:58;;;;;;;8.65;3.35;;;9.50;99.90;;;;;;5063543;28;20191;-78
2023/01/08 05:09:24;;;;;;;6.25;3.15;;;9.50;99.90;;;;;;5060350;28;20195;-79
2023/01/08 05:11:49;;;;;;;5.40;3.25;;;9.50;99.90;;;;;;5032735;28;20231;-77
2023/01/08 05:14:16;;;;;;;8.65;3.67;;;9.50;99.90;;;;;;5031461;28;20230;-76
2023/01/08 05:16:42;;;;;;;9.73;3.40;;;9.50;99.90;;;;;;5015084;28;20184;-79
2023/01/08 05:19:08;;;;;;;6.05;3.45;;;9.50;99.90;;;;;;5030227;28;20195;-78
2023/01/08 05:21:34;;;;;;;6.43;3.67;;;9.50;99.90;;;;;;5047095;28;20295;-76
2023/01/08 05:23:59;;;;;;;10.35;3.38;;;9.50;99.90;;;;;;5029146;28;20233;-76
2023/01/08 05:26:25;;;;;;;7.90;3.30;;;9.50;99.90;;;;;;5031205;28;20186;-76
2023/01/08 05:28:51;;;;;;;5.88;3.08;;;9.50;99.90;;;;;;5014206;28;20274;-76
2023/01/08 05:31:17;;;;;;;9.82;3.75;;;9.50;99.90;;;;;;5063440;28;20192;-78
2023/01/08 05:33:43;;;;;;;12.00;3.70;;;9.50;99.90;;;;;;5030971;28;20187;-77
2023/01/08 05:36:11;;;;;;;10.88;3.53;;;9.50;99.90;;;;;;5031471;28;20616;-77
2023/01/08 05:38:37;;;;;;;7.10;3.50;;;9.60;99.90;;;;;;5031940;28;20274;-79
2023/01/08 05:41:04;;;;;;;9.57;3.28;;;9.50;99.90;;;;;;5030736;28;20644;-78
2023/01/08 05:43:30;;;;;;;8.57;3.50;;;9.60;99.90;;;;;;5030621;28;20337;-78
2023/01/08 05:46:00;;;;;;;9.25;3.20;;;9.60;99.90;;;;;;5032392;28;20303;-77
2023/01/08 05:48:30;;;;;;;7.78;3.40;;;9.60;99.90;;;;;;5046532;28;20203;-77
2023/01/08 05:50:56;;;;;;;8.15;3.40;;;9.60;99.90;;;;;;5030647;28;20184;-77
2023/01/08 05:53:21;;;;;;;7.65;3.00;;;9.60;99.90;;;;;;5029274;28;20588;-77
2023/01/08 05:55:47;;;;;;;7.38;3.28;;;9.60;99.90;;;;;;5046112;28;20222;-77
2023/01/08 05:58:17;;;;;;;8.60;3.22;;;9.60;99.90;;;;;;5013883;28;20632;-77
2023/01/08 06:00:44;;;;;;;8.48;3.45;;;9.60;99.90;;;;;;5030496;28;20219;-77
2023/01/08 06:03:09;;;;;;;9.93;3.42;;;9.60;99.90;;;;;;5031320;28;20267;-77
2023/01/08 06:05:35;;;;;;;5.20;3.35;;;9.60;99.90;;;;;;5042727;28;20659;-77
2023/01/08 06:08:01;;;;;;;6.47;3.08;;;9.60;99.90;;;;;;5061429;28;20202;-77
2023/01/08 06:10:27;;;;;;;8.02;3.17;;;9.60;99.90;;;;;;5047127;28;20279;-79
2023/01/08 06:12:53;;;;;;;9.70;3.03;;;9.60;99.90;;;;;;5032849;28;20301;-77
2023/01/08 06:15:19;;;;;;;9.25;3.00;;;9.60;99.90;;;;;;5040901;28;20177;-78
2023/01/08 06:17:44;;;;;;;5.82;2.80;;;9.60;99.90;;;;;;5039575;28;20200;-78
2023/01/08 06:20:10;;;;;;;6.20;2.67;;;9.50;99.90;;;;;;5023746;28;20586;-77
2023/01/08 06:22:36;;;;;;;8.13;3.15;;;9.50;99.90;;;;;;5035174;28;20639;-77
2023/01/08 06:25:02;;;;;;;8.45;2.90;;;9.50;99.90;;;;;;5037921;28;20230;-77
2023/01/08 06:27:28;;;;;;;5.93;2.40;;;9.50;99.90;;;;;;5049631;28;20258;-78
2023/01/08 06:29:54;;;;;;;6.05;2.75;;;9.50;99.90;;;;;;5035904;28;20188;-77
2023/01/08 06:32:20;;;;;;;6.32;2.60;;;9.50;99.90;;;;;;5032557;28;20306;-77
2023/01/08 06:34:46;;;;;;;8.85;2.90;;;9.50;99.90;;;;;;5032872;28;20216;-77
2023/01/08 06:37:12;;;;;;;8.60;2.78;;;9.50;99.90;;;;;;5034808;28;20191;-77
2023/01/08 06:39:37;;;;;;;5.65;2.55;;;9.50;99.90;;;;;;5021812;28;20679;-77
2023/01/08 06:42:03;;;;;;;8.10;2.45;;;9.50;99.90;;;;;;5033459;28;20180;-77
2023/01/08 06:44:29;;;;;;;7.75;2.75;;;9.50;99.90;;;;;;5032312;28;20211;-76
2023/01/08 06:46:54;;;;;;;8.60;2.83;;;9.50;99.90;;;;;;5043150;28;20277;-77
2023/01/08 06:49:21;;;;;;;5.28;2.90;;;9.50;99.90;;;;;;5048292;28;20638;-78
2023/01/08 06:51:47;;;;;;;6.85;3.00;;;9.50;99.90;;;;;;5036285;28;20550;-75
2023/01/08 06:54:13;;;;;;;5.63;2.92;;;9.50;99.90;;;;;;5032827;28;20196;-78
2023/01/08 06:56:38;;;;;;;9.48;3.50;;;9.50;99.90;;;;;;5033934;28;20187;-76
2023/01/08 06:59:04;;;;;;;7.93;3.40;;;9.50;99.90;;;;;;5034191;28;20187;-76
2023/01/08 07:01:30;;;;;;;4.25;3.15;;;9.50;99.90;;;;;;5033719;28;20184;-76
2023/01/08 07:03:56;;;;;;;8.27;3.33;;;9.50;99.90;;;;;;5032809;28;20577;-78
2023/01/08 07:06:22;;;;;;;8.38;3.72;;;9.40;99.90;;;;;;5034488;28;20208;-77
2023/01/08 07:08:48;;;;;;;7.97;3.60;;;9.40;99.90;;;;;;5020531;28;20193;-76
2023/01/08 07:11:15;;;;;;;6.85;3.70;;;9.40;99.90;;;;;;5043608;28;20180;-77
2023/01/08 07:13:41;;;;;;;6.90;3.55;;;9.40;99.90;;;;;;5030787;28;20196;-77
2023/01/08 07:16:09;;;;;;;9.85;3.53;;;9.40;99.90;;;;;;5021540;28;20188;-76
2023/01/08 07:18:35;;;;;;;6.32;3.47;;;9.40;99.90;;;;;;5032969;28;20262;-76
2023/01/08 07:21:05;;;;;;;11.75;3.67;;;9.40;99.90;;;;;;5042110;28;20272;-76
2023/01/08 07:23:31;;;;;;;6.05;3.30;;;9.30;99.90;;;;;;5023851;28;20191;-77
2023/01/08 07:26:02;;;;;;;7.05;3.80;;;9.30;99.90;;;;;;5033622;28;20212;-76
2023/01/08 07:28:28;;;;;;;7.80;3.42;;;9.30;99.90;;;;;;5046606;28;20180;-76
2023/01/08 07:30:54;;;;;;;12.68;3.60;;;9.30;99.90;;;;;;5033024;28;20184;-76
2023/01/08 07:33:20;;;;;;;8.27;4.00;;;9.30;99.90;;;;;;5032071;28;20180;-76
2023/01/08 07:35:52;;;;;;;10.60;3.72;;;9.30;99.90;;;;;;5033678;28;20328;-76
2023/01/08 07:38:18;;;;;;;7.28;3.15;;;9.20;99.90;;;;;;5030593;28;20662;-77
2023/01/08 07:40:44;;;;;;;8.52;3.70;;;9.20;99.90;;;;;;5045609;28;20279;-76
2023/01/08 07:43:11;;;;;;;7.85;3.60;;;9.20;99.90;;;;;;5022360;28;20207;-76
2023/01/08 07:45:37;;;;;;;5.80;3.45;;;9.10;99.90;;;;;;5034124;28;20354;-77
2023/01/08 07:48:04;;;;;;;7.00;3.15;;;9.10;99.90;;;;;;5027140;28;20671;-77
2023/01/08 07:50:30;;;;;;;11.10;3.40;;;9.20;99.90;;;;;;5033610;28;20172;-79
2023/01/08 07:53:00;;;;;;;9.07;3.20;;;9.10;99.90;;;;;;5031701;28;20628;-77
2023/01/08 07:55:27;;;;;;;8.45;3.25;;;9.10;99.90;;;;;;5065095;28;20249;-77
2023/01/08 07:57:53;;;;;;;8.57;3.08;;;9.10;99.90;;;;;;5032302;28;20262;-78
2023/01/08 08:00:19;;;;;;;10.20;3.35;;;9.10;99.90;;;;;;5027882;28;20278;-77
2023/01/08 08:02:45;;;;;;;6.72;3.00;;;9.10;99.90;;;;;;5063792;28;20646;-77
2023/01/08 08:05:11;;;;;;;7.43;3.03;;;9.10;99.90;;;;;;5047767;28;20608;-76
2023/01/08 08:07:36;;;;;;;7.25;3.42;;;9.10;99.90;;;;;;5032743;28;20192;-77
2023/01/08 08:10:03;;;;;;;12.25;4.00;;;9.00;99.90;;;;;;5032649;28;20191;-78
2023/01/08 08:12:29;;;;;;;9.88;3.75;;;9.00;99.90;;;;;;5014209;28;20225;-77
2023/01/08 08:14:55;;;;;;;10.25;3.47;;;9.00;99.90;;;;;;5065006;28;20195;-80
2023/01/08 08:17:21;;;;;;;7.45;3.42;;;9.00;99.90;;;;;;5015985;28;20184;-77
2023/01/08 08:19:46;;;;;;;10.80;3.80;;;9.00;99.90;;;;;;5032211;28;20538;-84
2023/01/08 08:22:12;;;;;;;10.70;3.83;;;8.90;99.90;;;;;;5015086;28;20191;-76
2023/01/08 08:24:38;;;;;;;7.93;3.75;;;8.90;99.90;;;;;;5064341;28;20236;-77
2023/01/08 08:27:04;;;;;;;11.35;3.97;;;8.90;99.90;;;;;;5065835;28;20188;-79
2023/01/08 08:29:30;;;;;;;9.00;4.15;;;8.90;99.90;;;;;;5030159;28;20632;-79
2023/01/08 08:31:55;;;;;;;11.45;3.90;;;8.90;99.90;;;;;;5039488;28;20187;-78
2023/01/08 08:34:21;;;;;;;8.43;3.67;;;9.00;99.90;;;;;;5036393;28;20191;-79
2023/01/08 08:36:47;;;;;;;7.93;3.60;;;9.00;99.90;;;;;;5032208;28;20184;-75
2023/01/08 08:39:13;;;;;;;9.52;3.65;;;9.10;99.90;;;;;;5040963;28;20183;-77
2023/01/08 08:41:41;;;;;;;8.93;3.67;;;9.10;99.90;;;;;;5032676;28;20191;-76
2023/01/08 08:44:07;;;;;;;8.80;3.40;;;9.20;99.90;;;;;;5031700;28;20180;-76
2023/01/08 08:46:33;;;;;;;11.85;3.50;;;9.20;99.90;;;;;;5032228;28;20184;-80
2023/01/08 08:48:59;;;;;;;12.15;3.30;;;9.30;99.90;;;;;;5030057;28;20199;-76
2023/01/08 08:51:25;;;;;;;13.15;3.45;;;9.30;99.90;;;;;;5013628;28;20223;-75
2023/01/08 08:53:50;;;;;;;11.80;3.13;;;9.40;99.90;;;;;;5031778;28;20194;-76
2023/01/08 08:56:16;;;;;;;10.93;3.00;;;9.40;99.90;;;;;;5038203;28;20179;-75
2023/01/08 08:58:44;;;;;;;6.85;2.80;;;9.50;99.90;;;;;;5031975;28;20249;-76
2023/01/08 09:01:10;;;;;;;10.45;3.28;;;9.80;99.90;;;;;;5031716;28;20180;-78
2023/01/08 09:03:36;;;;;;;7.03;2.45;;;10.20;99.90;;;;;;5026524;28;20211;-83
2023/01/08 09:06:02;;;;;;;10.15;2.60;;;10.60;99.90;;;;;;5031428;28;20648;-79
2023/01/08 09:08:29;;;;;;;9.45;2.90;;;11.10;99.90;;;;;;5042794;28;20216;-85
2023/01/08 09:10:55;;;;;;;12.70;2.70;;;11.50;99.90;;;;;;5046245;28;20266;-78
2023/01/08 09:13:21;;;;;;;7.50;2.53;;;12.00;99.90;;;;;;5012638;28;20349;-79
2023/01/08 09:15:46;;;;;;;10.50;2.47;;;12.30;99.90;;;;;;5034952;28;20192;-80
2023/01/08 09:18:12;;;;;;;7.90;2.58;;;12.70;99.90;;;;;;5031792;28;20183;-79
2023/01/08 09:20:38;;;;;;;6.22;2.20;;;13.00;99.90;;;;;;5033313;28;20183;-78
2023/01/08 09:23:04;;;;;;;14.38;2.50;;;13.30;99.90;;;;;;5043850;28;20880;-90
2023/01/08 09:25:30;;;;;;;9.25;2.20;;;13.60;99.90;;;;;;5022845;28;20229;-77
2023/01/08 09:28:04;;;;;;;8.48;2.67;;;13.60;99.90;;;;;;5063466;28;20195;-78
2023/01/08 09:30:30;;;;;;;10.10;2.58;;;13.70;99.90;;;;;;5031634;28;20588;-77
2023/01/08 09:32:58;;;;;;;10.48;2.13;;;13.80;99.90;;;;;;5031094;28;20253;-76
2023/01/08 09:35:24;;;;;;;7.93;2.42;;;13.80;99.90;;;;;;5029599;28;20670;-76
2023/01/08 09:37:51;;;;;;;8.18;2.15;;;13.90;99.90;;;;;;5035678;28;20187;-77
2023/01/08 09:40:18;;;;;;;12.77;2.35;;;14.00;99.90;;;;;;5032816;28;20643;-76
2023/01/08 09:43:00;;;;;;;7.55;2.08;;;14.20;99.90;;;;;;5063478;28;20222;-76
2023/01/08 09:45:32;;;;;;;4.88;1.85;;;14.20;99.90;;;;;;5063363;28;20226;-77
2023/01/08 09:48:02;;;;;;;7.95;2.30;;;14.30;99.90;;;;;;5033612;28;20184;-76
2023/01/08 09:50:30;;;;;;;6.13;2.00;;;14.40;99.90;;;;;;5020378;28;20223;-75
2023/01/08 09:52:56;;;;;;;8.35;1.90;;;14.50;99.90;;;;;;5025787;28;20241;-76
2023/01/08 09:55:22;;;;;;;8.00;2.38;;;14.50;99.90;;;;;;5034987;28;20191;-76
2023/01/08 09:57:48;;;;;;;6.65;1.88;;;14.60;99.90;;;;;;5032935;28;20556;-77
2023/01/08 10:00:23;;;;;;;10.10;1.85;;;14.70;99.90;;;;;;5035203;28;20184;-75
2023/01/08 10:02:50;;;;;;;7.38;2.20;;;14.80;99.90;;;;;;5035017;28;20263;-77
2023/01/08 10:05:17;;;;;;;8.15;2.00;;;14.80;99.90;;;;;;5036120;28;20204;-76
2023/01/08 10:07:44;;;;;;;4.50;1.60;;;14.90;99.90;;;;;;5033978;28;20179;-77
2023/01/08 10:10:20;;;;;;;6.03;1.80;;;14.90;99.90;;;;;;5067859;28;20218;-77
2023/01/08 10:12:48;;;;;;;7.43;1.88;;;14.90;99.90;;;;;;5034241;28;20223;-77
2023/01/08 10:15:17;;;;;;;9.15;1.83;;;14.90;99.90;;;;;;5035850;28;20241;-76
2023/01/08 10:17:58;;;;;;;8.85;2.33;;;14.90;99.90;;;;;;5029528;28;20192;-78
2023/01/08 10:20:25;;;;;;;9.55;1.90;;;14.90;99.90;;;;;;5035095;28;20199;-76
2023/01/08 10:22:53;;;;;;;8.35;2.20;;;14.80;99.90;;;;;;5035013;28;20200;-77
2023/01/08 10:25:26;;;;;;;7.15;1.95;;;14.70;99.90;;;;;;5035875;28;20239;-76
2023/01/08 10:27:57;;;;;;;7.20;1.98;;;14.70;99.90;;;;;;5032725;28;20647;-76
2023/01/08 10:30:36;;;;;;;7.88;2.08;;;14.70;99.90;;;;;;5035310;28;20226;-77
2023/01/08 10:33:24;;;;;;;12.32;2.08;;;14.70;99.90;;;;;;5033074;28;20199;-78
2023/01/08 10:36:02;;;;;;;10.18;2.22;;;14.70;99.90;;;;;;5035456;28;20256;-75
2023/01/08 10:38:32;;;;;;;9.90;2.15;;;14.80;99.90;;;;;;5033514;28;20190;-78
2023/01/08 10:41:02;;;;;;;12.73;2.20;;;15.00;99.90;;;;;;5020055;28;20208;-78
2023/01/08 10:43:42;;;;;;;10.27;2.38;;;15.20;99.90;;;;;;5026074;28;20657;-80
2023/01/08 10:46:35;;;;;;;9.65;2.00;;;15.20;99.90;;;;;;5015012;28;20196;-75
2023/01/08 10:49:05;;;;;;;8.68;2.28;;;15.30;99.90;;;;;;5027363;28;20180;-75
2023/01/08 10:51:31;;;;;;;11.00;3.25;;;15.50;99.90;;;;;;5032974;28;20613;-76
2023/01/08 10:54:00;;;;;;;16.08;2.45;;;15.60;99.90;;;;;;5021418;28;20208;-75
2023/01/08 10:56:27;;;;;;;11.18;2.15;;;15.70;99.90;;;;;;5042418;28;20187;-75
2023/01/08 10:58:54;;;;;;;12.40;2.25;;;15.80;99.90;;;;;;5034821;28;20188;-75
2023/01/08 11:01:30;;;;;;;9.93;2.20;;;15.70;99.90;;;;;;5049623;28;20184;-75
2023/01/08 11:04:04;;;;;;;8.57;2.30;;;15.50;99.90;;;;;;5033443;28;20198;-79
2023/01/08 11:06:33;;;;;;;10.80;2.35;;;15.20;99.90;;;;;;5037696;28;20188;-75
2023/01/08 11:09:16;;;;;;;8.55;2.10;;;15.00;99.90;;;;;;5035416;28;20222;-75
2023/01/08 11:11:42;;;;;;;10.35;2.10;;;14.90;99.90;;;;;;5034111;28;20303;-80
2023/01/08 11:14:25;;;;;;;8.25;2.10;;;14.80;99.90;;;;;;5033443;28;20263;-77
2023/01/08 11:16:52;;;;;;;13.82;2.30;;;14.60;99.90;;;;;;5020092;28;20648;-78
2023/01/08 11:19:23;;;;;;;11.13;2.35;;;14.40;99.90;;;;;;5045120;28;20192;-78
2023/01/08 11:22:22;;;;;;;10.02;2.03;;;14.30;99.90;;;;;;5029915;28;20558;-77
2023/01/08 11:24:50;;;;;;;16.50;2.22;;;14.20;99.90;;;;;;5034356;28;20214;-77
2023/01/08 11:27:33;;;;;;;12.65;2.10;;;14.20;99.90;;;;;;5048928;28;20176;-78
2023/01/08 11:30:12;;;;;;;8.43;2.13;;;14.30;99.90;;;;;;5033305;28;20187;-78
2023/01/08 11:33:11;;;;;;;12.27;2.38;;;14.20;99.90;;;;;;5015426;28;20220;-78
2023/01/08 11:36:04;;;;;;;11.60;2.00;;;14.20;99.90;;;;;;5033649;28;20175;-76
2023/01/08 11:38:31;;;;;;;7.88;2.10;;;14.20;99.90;;;;;;5026292;28;20192;-79
2023/01/08 11:41:05;;;;;;;16.25;2.70;;;14.20;99.90;;;;;;5028069;28;20271;-78
2023/01/08 11:43:40;;;;;;;13.30;2.05;;;14.20;99.90;;;;;;5023173;28;20230;-79
2023/01/08 11:46:12;;;;;;;12.27;2.05;;;14.20;99.90;;;;;;5033668;28;20261;-78
2023/01/08 11:49:20;;;;;;;12.77;2.50;;;14.10;99.90;;;;;;5043188;28;20179;-77
2023/01/08 11:52:22;;;;;;;12.80;2.45;;;13.90;99.90;;;;;;5029832;28;20245;-78
2023/01/08 11:55:06;;;;;;;8.52;2.30;;;13.80;99.90;;;;;;5035112;28;20187;-80
2023/01/08 11:57:41;;;;;;;10.30;2.00;;;13.70;99.90;;;;;;5029711;28;20278;-78
2023/01/08 12:00:22;;;;;;;7.95;1.98;;;13.60;99.90;;;;;;5034427;28;20184;-79
2023/01/08 12:03:07;;;;;;;10.15;2.25;;;13.60;99.90;;;;;;5037068;28;20184;-77
2023/01/08 12:05:57;;;;;;;10.52;2.20;;;13.50;99.90;;;;;;5043690;28;20214;-78
2023/01/08 12:09:01;;;;;;;13.18;2.03;;;13.40;99.90;;;;;;5059419;28;20186;-76
2023/01/08 12:11:35;;;;;;;13.75;2.63;;;13.60;99.90;;;;;;5052210;28;20226;-77
2023/01/08 12:14:23;;;;;;;10.82;2.60;;;13.60;99.90;;;;;;5033179;28;20273;-77
2023/01/08 12:17:04;;;;;;;12.02;2.63;;;13.60;99.90;;;;;;5028964;28;20210;-76
2023/01/08 12:19:42;;;;;;;12.95;2.47;;;13.50;99.90;;;;;;5051024;28;20186;-77
2023/01/08 12:22:14;;;;;;;11.40;2.22;;;13.40;99.90;;;;;;5042670;28;20187;-79
2023/01/08 12:25:05;;;;;;;15.32;2.63;;;13.30;99.90;;;;;;5032166;28;20214;-76
2023/01/08 12:27:49;;;;;;;9.32;2.65;;;13.40;99.90;;;;;;5032185;28;20180;-79
2023/01/08 12:30:30;;;;;;;9.38;2.28;;;13.50;99.90;;;;;;5018530;28;20179;-75
2023/01/08 12:33:03;;;;;;;10.85;2.50;;;13.50;99.90;;;;;;5031950;28;20199;-76
2023/01/08 12:35:38;;;;;;;11.05;2.28;;;13.50;99.90;;;;;;5028585;28;20237;-76
2023/01/08 12:38:17;;;;;;;13.13;2.63;;;13.50;99.90;;;;;;5033322;28;20230;-76
2023/01/08 12:41:22;;;;;;;13.23;2.75;;;13.50;99.90;;;;;;5032371;28;20347;-76
2023/01/08 12:43:59;;;;;;;10.80;2.33;;;13.50;99.90;;;;;;5020960;28;20203;-77
2023/01/08 12:46:33;;;;;;;9.20;2.55;;;13.60;99.90;;;;;;5026107;28;20188;-76
2023/01/08 12:48:59;;;;;;;13.68;2.90;;;13.60;99.90;;;;;;5031265;28;20183;-76
2023/01/08 12:51:44;;;;;;;10.13;2.33;;;13.60;99.90;;;;;;5032131;28;20267;-76
2023/01/08 12:54:22;;;;;;;12.75;2.60;;;13.50;99.90;;;;;;5046318;28;20183;-76
2023/01/08 12:57:10;;;;;;;13.80;2.38;;;13.40;99.90;;;;;;5032626;28;20175;-75
2023/01/08 12:59:48;;;;;;;13.73;2.75;;;13.40;99.90;;;;;;5031087;28;20184;-75
2023/01/08 13:02:51;;;;;;;13.52;2.67;;;13.30;99.90;;;;;;5042927;28;20184;-75
2023/01/08 13:05:17;;;;;;;11.20;2.53;;;13.30;99.90;;;;;;5026464;28;20207;-76
2023/01/08 13:07:48;;;;;;;14.73;2.33;;;13.40;99.90;;;;;;5035602;28;20179;-76